createdAt,value
2019-05-29T00:00:33.988Z,9.96
2019-05-29T00:01:33.917Z,10.02
2019-05-29T00:02:33.876Z,9.97
2019-05-29T00:03:33.863Z,9.84
2019-05-29T00:04:33.787Z,9.90
2019-05-29T00:05:33.760Z,9.84
2019-05-29T00:06:33.754Z,9.84
2019-05-29T00:07:33.672Z,9.86
2019-05-29T00:08:33.622Z,9.89
2019-05-29T00:09:33.589Z,9.90
2019-05-29T00:10:33.544Z,9.78
2019-05-29T00:11:33.504Z,9.79
2019-05-29T00:12:33.500Z,9.84
2019-05-29T00:13:33.409Z,9.79
2019-05-29T00:14:33.400Z,9.71
2019-05-29T00:15:33.328Z,9.69
2019-05-29T00:16:33.284Z,9.61
2019-05-29T00:17:33.247Z,9.71
2019-05-29T00:18:33.238Z,9.61
2019-05-29T00:19:33.167Z,9.65
2019-05-29T00:20:33.135Z,9.57
2019-05-29T00:21:33.073Z,9.60
2019-05-29T00:22:33.037Z,9.58
2019-05-29T00:23:33.027Z,9.61
2019-05-29T00:24:32.950Z,9.60
2019-05-29T00:25:32.901Z,9.53
2019-05-29T00:26:32.862Z,9.60
2019-05-29T00:27:32.825Z,9.48
2019-05-29T00:28:32.810Z,9.50
2019-05-29T00:29:32.738Z,9.43
2019-05-29T00:30:32.700Z,9.51
2019-05-29T00:31:32.654Z,9.46
2019-05-29T00:32:32.613Z,9.50
2019-05-29T00:33:32.602Z,9.40
2019-05-29T00:34:32.523Z,9.38
2019-05-29T00:35:32.482Z,9.39
2019-05-29T00:36:32.461Z,9.35
2019-05-29T00:37:32.401Z,9.33
2019-05-29T00:38:32.393Z,9.35
2019-05-29T00:39:32.372Z,9.33
2019-05-29T00:40:32.301Z,9.31
2019-05-29T00:41:32.235Z,9.33
2019-05-29T00:42:32.192Z,9.33
2019-05-29T00:43:32.149Z,9.36
2019-05-29T00:44:34.651Z,9.33
2019-05-29T00:45:32.057Z,9.33
2019-05-29T00:46:32.024Z,9.38
2019-05-29T00:47:31.972Z,9.31
2019-05-29T00:48:31.938Z,9.40
2019-05-29T00:49:31.894Z,9.23
2019-05-29T00:50:32.942Z,9.24
2019-05-29T00:51:31.809Z,9.28
2019-05-29T00:52:31.769Z,9.24
2019-05-29T00:53:31.729Z,9.18
2019-05-29T00:54:31.675Z,9.21
2019-05-29T00:55:31.641Z,9.23
2019-05-29T00:56:31.629Z,9.28
2019-05-29T00:57:31.551Z,9.23
2019-05-29T00:58:31.504Z,9.18
2019-05-29T00:59:31.465Z,9.20
2019-05-29T01:00:31.423Z,9.17
2019-05-29T01:01:31.384Z,9.21
2019-05-29T01:02:31.380Z,9.13
2019-05-29T01:03:31.298Z,9.17
2019-05-29T01:04:31.261Z,9.13
2019-05-29T01:05:31.211Z,9.15
2019-05-29T01:06:31.166Z,9.18
2019-05-29T01:07:31.158Z,9.14
2019-05-29T01:08:31.080Z,9.08
2019-05-29T01:09:31.041Z,9.21
2019-05-29T01:10:31.002Z,9.14
2019-05-29T01:11:30.956Z,9.14
2019-05-29T01:12:30.912Z,9.10
2019-05-29T01:13:30.905Z,9.04
2019-05-29T01:14:30.831Z,8.96
2019-05-29T01:15:30.801Z,8.98
2019-05-29T01:16:30.745Z,9.10
2019-05-29T01:17:30.730Z,8.98
2019-05-29T01:18:30.655Z,9.02
2019-05-29T01:19:30.621Z,8.99
2019-05-29T01:20:30.572Z,9.02
2019-05-29T01:21:30.532Z,9.04
2019-05-29T01:22:30.529Z,8.98
2019-05-29T01:23:30.449Z,9.01
2019-05-29T01:24:30.405Z,8.96
2019-05-29T01:25:30.359Z,8.89
2019-05-29T01:26:30.313Z,8.94
2019-05-29T01:27:30.280Z,8.94
2019-05-29T01:28:30.266Z,8.89
2019-05-29T01:29:30.190Z,8.98
2019-05-29T01:30:30.145Z,8.96
2019-05-29T01:31:30.101Z,8.87
2019-05-29T01:32:30.063Z,8.79
2019-05-29T01:33:30.050Z,8.83
2019-05-29T01:34:29.980Z,8.77
2019-05-29T01:35:29.941Z,8.74
2019-05-29T01:36:29.893Z,8.70
2019-05-29T01:37:29.877Z,8.74
2019-05-29T01:38:29.805Z,8.77
2019-05-29T01:39:29.759Z,8.71
2019-05-29T01:40:29.838Z,8.70
2019-05-29T01:41:29.683Z,8.61
2019-05-29T01:42:29.639Z,8.62
2019-05-29T01:43:29.589Z,8.63
2019-05-29T01:44:29.546Z,8.61
2019-05-29T01:45:29.506Z,8.52
2019-05-29T01:46:29.497Z,8.45
2019-05-29T01:47:29.461Z,8.45
2019-05-29T01:48:29.385Z,8.43
2019-05-29T01:49:29.333Z,8.22
2019-05-29T01:50:29.295Z,8.25
2019-05-29T01:51:29.251Z,8.16
2019-05-29T01:52:29.206Z,8.25
2019-05-29T01:53:29.202Z,8.10
2019-05-29T01:54:29.125Z,8.22
2019-05-29T01:55:29.086Z,8.11
2019-05-29T01:56:29.039Z,8.11
2019-05-29T01:57:29.026Z,8.05
2019-05-29T01:58:28.949Z,7.95
2019-05-29T01:59:28.932Z,8.02
2019-05-29T02:00:28.879Z,7.92
2019-05-29T02:01:28.819Z,7.87
2019-05-29T02:02:28.775Z,7.89
2019-05-29T02:03:28.767Z,7.95
2019-05-29T02:04:28.697Z,7.93
2019-05-29T02:05:28.659Z,7.85
2019-05-29T02:06:28.613Z,7.79
2019-05-29T02:07:28.567Z,7.77
2019-05-29T02:08:28.560Z,7.75
2019-05-29T02:09:28.475Z,7.74
2019-05-29T02:10:28.433Z,7.75
2019-05-29T02:11:28.405Z,7.75
2019-05-29T02:12:28.348Z,7.72
2019-05-29T02:13:28.310Z,7.72
2019-05-29T02:14:28.314Z,7.63
2019-05-29T02:15:32.527Z,7.69
2019-05-29T02:16:28.176Z,7.72
2019-05-29T02:17:28.136Z,7.68
2019-05-29T02:18:28.097Z,7.61
2019-05-29T02:19:28.269Z,7.52
2019-05-29T02:20:28.009Z,7.53
2019-05-29T02:21:28.441Z,7.52
2019-05-29T02:22:27.916Z,7.45
2019-05-29T02:23:28.272Z,7.40
2019-05-29T02:24:27.869Z,7.48
2019-05-29T02:25:27.793Z,7.45
2019-05-29T02:26:27.752Z,7.43
2019-05-29T02:27:27.794Z,7.43
2019-05-29T02:28:27.669Z,7.39
2019-05-29T02:29:27.613Z,7.42
2019-05-29T02:30:30.438Z,7.40
2019-05-29T02:31:28.834Z,7.39
2019-05-29T02:32:27.870Z,7.37
2019-05-29T02:33:28.363Z,7.37
2019-05-29T02:34:29.444Z,7.28
2019-05-29T02:35:29.442Z,7.31
2019-05-29T02:36:28.685Z,7.27
2019-05-29T02:37:28.968Z,7.24
2019-05-29T02:38:27.669Z,7.21
2019-05-29T02:39:27.683Z,7.24
2019-05-29T02:40:29.440Z,7.24
2019-05-29T02:41:28.450Z,7.15
2019-05-29T02:42:27.192Z,7.28
2019-05-29T02:43:27.781Z,7.20
2019-05-29T02:44:27.618Z,7.23
2019-05-29T02:45:50.784Z,7.20
2019-05-29T02:46:28.614Z,7.34
2019-05-29T02:47:28.069Z,7.23
2019-05-29T02:48:27.600Z,7.17
2019-05-29T02:49:28.127Z,7.16
2019-05-29T02:50:28.809Z,7.10
2019-05-29T02:51:28.308Z,7.06
2019-05-29T02:52:28.560Z,7.06
2019-05-29T02:53:28.268Z,7.10
2019-05-29T02:54:27.277Z,7.15
2019-05-29T02:55:26.992Z,6.98
2019-05-29T02:56:26.985Z,6.95
2019-05-29T02:57:26.939Z,6.94
2019-05-29T02:58:27.740Z,6.85
2019-05-29T02:59:27.580Z,6.94
2019-05-29T03:00:27.625Z,6.84
2019-05-29T03:01:27.750Z,6.91
2019-05-29T03:02:27.753Z,6.88
2019-05-29T03:03:27.339Z,6.81
2019-05-29T03:04:26.678Z,6.85
2019-05-29T03:05:26.083Z,6.85
2019-05-29T03:06:26.277Z,6.79
2019-05-29T03:07:26.405Z,6.80
2019-05-29T03:08:27.055Z,6.79
2019-05-29T03:09:26.626Z,6.76
2019-05-29T03:10:26.682Z,6.89
2019-05-29T03:11:27.118Z,6.79
2019-05-29T03:12:27.065Z,6.84
2019-05-29T03:13:27.444Z,6.77
2019-05-29T03:14:27.129Z,6.69
2019-05-29T03:15:26.106Z,6.73
2019-05-29T03:16:26.690Z,6.79
2019-05-29T03:17:25.716Z,6.66
2019-05-29T03:18:25.821Z,6.71
2019-05-29T03:19:25.943Z,6.69
2019-05-29T03:20:25.965Z,6.80
2019-05-29T03:21:26.114Z,6.69
2019-05-29T03:22:26.278Z,6.85
2019-05-29T03:23:26.590Z,6.73
2019-05-29T03:24:26.686Z,6.77
2019-05-29T03:25:26.500Z,6.81
2019-05-29T03:26:26.979Z,6.85
2019-05-29T03:27:25.676Z,6.73
2019-05-29T03:28:25.684Z,6.79
2019-05-29T03:29:25.999Z,6.71
2019-05-29T03:30:27.981Z,6.81
2019-05-29T03:31:29.952Z,6.85
2019-05-29T03:32:28.272Z,6.81
2019-05-29T03:33:27.410Z,6.87
2019-05-29T03:34:27.366Z,6.87
2019-05-29T03:35:27.267Z,6.84
2019-05-29T03:36:27.421Z,6.79
2019-05-29T03:37:26.171Z,6.67
2019-05-29T03:38:25.952Z,6.80
2019-05-29T03:39:26.214Z,6.66
2019-05-29T03:40:26.348Z,6.71
2019-05-29T03:41:26.179Z,6.70
2019-05-29T03:42:26.257Z,6.80
2019-05-29T03:43:24.443Z,6.81
2019-05-29T03:44:24.364Z,6.66
2019-05-29T03:45:24.312Z,6.80
2019-05-29T03:46:31.567Z,6.92
2019-05-29T03:47:24.225Z,6.80
2019-05-29T03:48:25.833Z,6.71
2019-05-29T03:49:24.184Z,6.89
2019-05-29T03:50:26.257Z,6.84
2019-05-29T03:51:24.050Z,6.89
2019-05-29T03:52:24.007Z,6.84
2019-05-29T03:53:23.976Z,6.97
2019-05-29T03:54:23.945Z,6.85
2019-05-29T03:55:23.916Z,6.95
2019-05-29T03:56:23.837Z,6.98
2019-05-29T03:57:23.790Z,6.97
2019-05-29T03:58:23.752Z,6.98
2019-05-29T03:59:23.746Z,6.81
2019-05-29T04:00:23.662Z,6.95
2019-05-29T04:01:23.633Z,6.98
2019-05-29T04:02:23.580Z,7.10
2019-05-29T04:03:23.543Z,7.10
2019-05-29T04:04:23.491Z,7.09
2019-05-29T04:05:23.474Z,7.10
2019-05-29T04:06:23.442Z,7.12
2019-05-29T04:07:23.362Z,7.06
2019-05-29T04:08:23.319Z,6.98
2019-05-29T04:09:23.304Z,6.99
2019-05-29T04:10:23.226Z,7.09
2019-05-29T04:11:23.193Z,6.98
2019-05-29T04:12:23.140Z,7.09
2019-05-29T04:13:23.100Z,7.16
2019-05-29T04:14:23.061Z,7.09
2019-05-29T04:15:23.045Z,7.10
2019-05-29T04:16:22.970Z,7.13
2019-05-29T04:17:22.932Z,7.13
2019-05-29T04:18:22.881Z,7.09
2019-05-29T04:19:22.875Z,7.17
2019-05-29T04:20:22.790Z,7.15
2019-05-29T04:21:22.756Z,7.21
2019-05-29T04:22:22.733Z,7.23
2019-05-29T04:23:22.661Z,7.25
2019-05-29T04:24:22.656Z,7.27
2019-05-29T04:25:22.589Z,7.28
2019-05-29T04:26:22.538Z,7.28
2019-05-29T04:27:22.491Z,7.39
2019-05-29T04:28:22.449Z,7.40
2019-05-29T04:29:22.400Z,7.42
2019-05-29T04:30:22.423Z,7.39
2019-05-29T04:31:22.315Z,7.37
2019-05-29T04:32:22.283Z,7.43
2019-05-29T04:33:22.234Z,7.42
2019-05-29T04:34:22.232Z,7.43
2019-05-29T04:35:22.146Z,7.43
2019-05-29T04:36:22.114Z,7.72
2019-05-29T04:37:22.051Z,8.44
2019-05-29T04:38:22.011Z,9.60
2019-05-29T04:39:21.972Z,10.70
2019-05-29T04:40:21.959Z,11.69
2019-05-29T04:41:21.888Z,12.50
2019-05-29T04:42:21.839Z,13.23
2019-05-29T04:43:21.793Z,13.69
2019-05-29T04:44:21.789Z,14.18
2019-05-29T04:45:21.722Z,14.60
2019-05-29T04:46:21.675Z,14.86
2019-05-29T04:47:21.664Z,15.14
2019-05-29T04:48:21.634Z,15.35
2019-05-29T04:49:21.545Z,15.57
2019-05-29T04:50:21.514Z,15.74
2019-05-29T04:51:21.461Z,15.93
2019-05-29T04:52:21.426Z,16.07
2019-05-29T04:53:21.420Z,16.38
2019-05-29T04:54:21.340Z,16.50
2019-05-29T04:55:21.336Z,16.64
2019-05-29T04:56:21.257Z,16.60
2019-05-29T04:57:21.222Z,16.70
2019-05-29T04:58:21.179Z,16.85
2019-05-29T04:59:21.144Z,17.04
2019-05-29T05:00:21.151Z,17.07
2019-05-29T05:01:21.095Z,17.06
2019-05-29T05:02:21.019Z,17.26
2019-05-29T05:03:20.977Z,17.43
2019-05-29T05:04:20.944Z,17.62
2019-05-29T05:05:20.928Z,17.68
2019-05-29T05:06:20.900Z,17.68
2019-05-29T05:07:20.831Z,17.48
2019-05-29T05:08:20.821Z,17.64
2019-05-29T05:09:20.745Z,18.29
2019-05-29T05:10:20.706Z,18.32
2019-05-29T05:11:20.677Z,18.00
2019-05-29T05:12:20.671Z,17.99
2019-05-29T05:13:20.594Z,18.15
2019-05-29T05:14:20.557Z,18.23
2019-05-29T05:15:20.517Z,18.69
2019-05-29T05:16:20.483Z,18.48
2019-05-29T05:17:26.080Z,18.72
2019-05-29T05:18:20.414Z,18.70
2019-05-29T05:19:20.374Z,18.65
2019-05-29T05:20:20.359Z,18.87
2019-05-29T05:21:20.295Z,19.22
2019-05-29T05:22:20.259Z,19.18
2019-05-29T05:23:20.251Z,19.23
2019-05-29T05:24:20.186Z,19.04
2019-05-29T05:25:20.151Z,19.29
2019-05-29T05:26:20.118Z,19.43
2019-05-29T05:27:20.080Z,19.54
2019-05-29T05:28:20.070Z,19.71
2019-05-29T05:29:20.007Z,19.98
2019-05-29T05:30:19.973Z,20.47
2019-05-29T05:31:19.937Z,20.24
2019-05-29T05:32:19.898Z,20.16
2019-05-29T05:33:19.900Z,19.81
2019-05-29T05:34:19.822Z,19.54
2019-05-29T05:35:19.783Z,19.84
2019-05-29T05:36:19.751Z,20.33
2019-05-29T05:37:19.721Z,20.43
2019-05-29T05:38:19.682Z,20.69
2019-05-29T05:39:19.681Z,20.58
2019-05-29T05:40:19.609Z,20.58
2019-05-29T05:41:19.568Z,20.61
2019-05-29T05:42:19.531Z,20.85
2019-05-29T05:43:24.029Z,20.69
2019-05-29T05:44:19.514Z,20.57
2019-05-29T05:45:19.457Z,20.58
2019-05-29T05:46:19.392Z,20.69
2019-05-29T05:47:19.364Z,20.73
2019-05-29T05:48:19.318Z,20.84
2019-05-29T05:49:19.295Z,20.88
2019-05-29T05:50:19.290Z,21.35
2019-05-29T05:51:19.251Z,21.75
2019-05-29T05:52:19.193Z,22.09
2019-05-29T05:53:19.141Z,22.12
2019-05-29T05:54:19.105Z,22.72
2019-05-29T05:55:19.077Z,23.19
2019-05-29T05:56:19.073Z,23.09
2019-05-29T05:57:19.018Z,23.36
2019-05-29T05:58:18.976Z,23.17
2019-05-29T05:59:18.931Z,23.47
2019-05-29T06:00:18.896Z,23.69
2019-05-29T06:01:18.901Z,22.62
2019-05-29T06:02:18.833Z,23.31
2019-05-29T06:03:18.842Z,23.04
2019-05-29T06:04:18.763Z,23.05
2019-05-29T06:05:18.722Z,23.65
2019-05-29T06:06:18.695Z,24.15
2019-05-29T06:07:18.653Z,24.16
2019-05-29T06:08:18.626Z,24.99
2019-05-29T06:09:18.628Z,25.61
2019-05-29T06:10:18.558Z,25.13
2019-05-29T06:11:18.521Z,24.87
2019-05-29T06:12:18.488Z,24.58
2019-05-29T06:13:18.456Z,24.68
2019-05-29T06:14:18.452Z,23.97
2019-05-29T06:15:18.388Z,24.00
2019-05-29T06:16:18.355Z,23.58
2019-05-29T06:17:21.761Z,23.10
2019-05-29T06:18:27.212Z,23.23
2019-05-29T06:19:18.252Z,22.61
2019-05-29T06:20:18.217Z,22.57
2019-05-29T06:21:18.185Z,22.51
2019-05-29T06:22:18.150Z,22.39
2019-05-29T06:23:18.112Z,22.65
2019-05-29T06:24:18.112Z,21.94
2019-05-29T06:25:18.212Z,22.30
2019-05-29T06:26:18.019Z,23.04
2019-05-29T06:27:18.145Z,23.02
2019-05-29T06:28:17.947Z,23.65
2019-05-29T06:29:25.480Z,23.78
2019-05-29T06:30:17.909Z,24.47
2019-05-29T06:31:18.316Z,25.03
2019-05-29T06:32:17.826Z,24.57
2019-05-29T06:33:27.280Z,24.21
2019-05-29T06:34:17.763Z,24.73
2019-05-29T06:35:17.705Z,24.00
2019-05-29T06:36:17.754Z,23.87
2019-05-29T06:37:17.644Z,24.28
2019-05-29T06:38:17.608Z,23.42
2019-05-29T06:39:26.348Z,23.38
2019-05-29T06:40:26.375Z,23.58
2019-05-29T06:41:26.908Z,23.61
2019-05-29T06:42:26.936Z,23.97
2019-05-29T06:43:26.467Z,24.30
2019-05-29T06:44:17.396Z,24.21
2019-05-29T06:45:17.446Z,24.24
2019-05-29T06:46:17.365Z,23.94
2019-05-29T06:47:17.317Z,23.46
2019-05-29T06:48:17.264Z,23.17
2019-05-29T06:49:17.380Z,22.86
2019-05-29T06:50:17.232Z,23.39
2019-05-29T06:51:17.176Z,23.43
2019-05-29T06:52:17.134Z,24.22
2019-05-29T06:53:17.099Z,24.99
2019-05-29T06:54:17.075Z,25.72
2019-05-29T06:55:17.055Z,26.23
2019-05-29T06:56:17.509Z,26.65
2019-05-29T06:57:16.972Z,26.37
2019-05-29T06:58:16.935Z,25.73
2019-05-29T06:59:16.894Z,25.08
2019-05-29T07:00:33.968Z,25.32
2019-05-29T07:01:16.829Z,24.50
2019-05-29T07:02:16.791Z,24.99
2019-05-29T07:03:16.819Z,24.55
2019-05-29T07:04:16.725Z,25.35
2019-05-29T07:05:16.689Z,26.29
2019-05-29T07:06:16.686Z,27.12
2019-05-29T07:07:16.623Z,26.18
2019-05-29T07:08:24.165Z,25.75
2019-05-29T07:09:16.563Z,25.95
2019-05-29T07:10:16.532Z,26.57
2019-05-29T07:11:16.520Z,26.35
2019-05-29T07:12:16.458Z,26.23
2019-05-29T07:13:16.440Z,26.40
2019-05-29T07:14:16.491Z,25.98
2019-05-29T07:15:16.468Z,25.82
2019-05-29T07:16:16.327Z,26.36
2019-05-29T07:17:16.321Z,26.40
2019-05-29T07:18:16.258Z,26.88
2019-05-29T07:19:26.471Z,27.09
2019-05-29T07:20:16.198Z,27.39
2019-05-29T07:21:16.169Z,27.13
2019-05-29T07:22:16.154Z,26.45
2019-05-29T07:23:16.091Z,25.35
2019-05-29T07:24:16.059Z,25.28
2019-05-29T07:25:16.034Z,25.85
2019-05-29T07:26:16.009Z,26.23
2019-05-29T07:27:15.995Z,26.77
2019-05-29T07:28:15.968Z,26.28
2019-05-29T07:29:15.894Z,24.65
2019-05-29T07:30:15.864Z,23.51
2019-05-29T07:31:15.832Z,23.10
2019-05-29T07:32:15.800Z,22.98
2019-05-29T07:33:15.765Z,23.04
2019-05-29T07:34:15.765Z,23.01
2019-05-29T07:35:15.691Z,22.82
2019-05-29T07:36:15.671Z,22.64
2019-05-29T07:37:15.638Z,23.10
2019-05-29T07:38:15.609Z,23.38
2019-05-29T07:39:15.602Z,23.43
2019-05-29T07:40:15.534Z,23.93
2019-05-29T07:41:15.504Z,24.68
2019-05-29T07:42:15.467Z,24.93
2019-05-29T07:43:15.435Z,25.15
2019-05-29T07:44:15.396Z,25.46
2019-05-29T07:45:15.409Z,25.23
2019-05-29T07:46:15.338Z,23.94
2019-05-29T07:47:15.306Z,22.68
2019-05-29T07:48:15.273Z,22.21
2019-05-29T07:49:15.290Z,23.16
2019-05-29T07:50:15.203Z,23.10
2019-05-29T07:51:15.206Z,22.77
2019-05-29T07:52:15.154Z,23.02
2019-05-29T07:53:15.108Z,22.94
2019-05-29T07:54:15.078Z,22.62
2019-05-29T07:55:15.040Z,22.82
2019-05-29T07:56:22.650Z,22.46
2019-05-29T07:57:14.983Z,21.71
2019-05-29T07:58:14.947Z,21.58
2019-05-29T07:59:14.915Z,22.07
2019-05-29T08:00:14.883Z,22.36
2019-05-29T08:01:14.885Z,22.46
2019-05-29T08:02:14.819Z,22.75
2019-05-29T08:03:14.807Z,22.91
2019-05-29T08:04:14.751Z,23.07
2019-05-29T08:05:14.727Z,22.94
2019-05-29T08:06:14.694Z,22.79
2019-05-29T08:07:14.690Z,22.25
2019-05-29T08:08:14.619Z,22.82
2019-05-29T08:09:14.596Z,23.09
2019-05-29T08:10:14.608Z,23.33
2019-05-29T08:11:14.536Z,23.36
2019-05-29T08:12:14.531Z,23.51
2019-05-29T08:13:14.488Z,23.48
2019-05-29T08:14:14.431Z,23.66
2019-05-29T08:15:14.404Z,23.02
2019-05-29T08:16:14.364Z,22.98
2019-05-29T08:17:14.335Z,22.33
2019-05-29T08:18:14.342Z,22.10
2019-05-29T08:19:14.277Z,22.61
2019-05-29T08:20:14.244Z,22.91
2019-05-29T08:21:14.201Z,22.57
2019-05-29T08:22:14.170Z,22.42
2019-05-29T08:23:14.150Z,21.40
2019-05-29T08:24:14.157Z,21.19
2019-05-29T08:25:14.082Z,20.91
2019-05-29T08:26:14.045Z,21.14
2019-05-29T08:27:14.010Z,21.61
2019-05-29T08:28:13.983Z,22.46
2019-05-29T08:29:13.990Z,23.13
2019-05-29T08:30:13.928Z,23.00
2019-05-29T08:31:13.898Z,23.48
2019-05-29T08:32:14.327Z,23.00
2019-05-29T08:33:13.824Z,22.49
2019-05-29T08:34:13.824Z,22.57
2019-05-29T08:35:13.758Z,22.67
2019-05-29T08:36:13.741Z,22.76
2019-05-29T08:37:13.702Z,22.60
2019-05-29T08:38:13.679Z,22.39
2019-05-29T08:39:13.675Z,23.00
2019-05-29T08:40:13.642Z,23.32
2019-05-29T08:41:13.580Z,23.43
2019-05-29T08:42:23.803Z,23.10
2019-05-29T08:43:13.515Z,22.75
2019-05-29T08:44:13.485Z,22.61
2019-05-29T08:45:13.469Z,22.72
2019-05-29T08:46:13.439Z,22.64
2019-05-29T08:47:13.377Z,22.91
2019-05-29T08:48:13.354Z,23.72
2019-05-29T08:49:13.325Z,24.27
2019-05-29T08:50:18.634Z,23.76
2019-05-29T08:51:13.298Z,23.88
2019-05-29T08:52:13.247Z,23.35
2019-05-29T08:53:13.187Z,22.64
2019-05-29T08:54:23.610Z,22.88
2019-05-29T08:55:13.924Z,23.00
2019-05-29T08:56:13.202Z,23.66
2019-05-29T08:57:13.130Z,23.46
2019-05-29T08:58:13.047Z,23.47
2019-05-29T08:59:13.009Z,22.90
2019-05-29T09:00:13.021Z,22.42
2019-05-29T09:01:12.979Z,21.83
2019-05-29T09:02:12.943Z,21.59
2019-05-29T09:03:12.904Z,21.88
2019-05-29T09:04:12.870Z,22.17
2019-05-29T09:05:12.817Z,21.91
2019-05-29T09:06:13.760Z,22.15
2019-05-29T09:07:12.861Z,22.67
2019-05-29T09:08:12.779Z,22.85
2019-05-29T09:09:12.690Z,22.98
2019-05-29T09:10:12.653Z,23.15
2019-05-29T09:11:12.616Z,22.17
2019-05-29T09:12:12.626Z,21.19
2019-05-29T09:13:12.565Z,20.43
2019-05-29T09:14:12.549Z,20.33
2019-05-29T09:15:12.499Z,21.03
2019-05-29T09:16:12.458Z,21.17
2019-05-29T09:17:12.422Z,21.64
2019-05-29T09:18:12.993Z,21.54
2019-05-29T09:19:12.368Z,21.86
2019-05-29T09:20:30.599Z,21.96
2019-05-29T09:21:13.908Z,21.35
2019-05-29T09:22:13.381Z,21.13
2019-05-29T09:23:12.762Z,21.27
2019-05-29T09:24:14.113Z,21.44
2019-05-29T09:25:13.624Z,22.06
2019-05-29T09:26:17.683Z,22.64
2019-05-29T09:27:12.742Z,22.10
2019-05-29T09:28:14.024Z,22.15
2019-05-29T09:29:17.809Z,21.96
2019-05-29T09:30:13.885Z,22.17
2019-05-29T09:31:11.966Z,22.05
2019-05-29T09:32:11.933Z,21.50
2019-05-29T09:33:11.899Z,21.52
2019-05-29T09:34:11.866Z,21.61
2019-05-29T09:35:11.867Z,21.79
2019-05-29T09:36:11.840Z,22.10
2019-05-29T09:37:11.919Z,22.05
2019-05-29T09:38:11.733Z,22.57
2019-05-29T09:39:11.695Z,22.35
2019-05-29T09:40:11.662Z,21.82
2019-05-29T09:41:11.640Z,22.18
2019-05-29T09:42:11.649Z,22.31
2019-05-29T09:43:11.574Z,22.80
2019-05-29T09:44:28.137Z,22.49
2019-05-29T09:45:11.512Z,22.18
2019-05-29T09:46:11.970Z,22.12
2019-05-29T09:47:11.440Z,21.99
2019-05-29T09:48:11.441Z,22.37
2019-05-29T09:49:11.367Z,22.90
2019-05-29T09:50:11.337Z,22.75
2019-05-29T09:51:21.165Z,22.62
2019-05-29T09:52:11.298Z,22.52
2019-05-29T09:53:11.268Z,21.92
2019-05-29T09:54:11.277Z,21.21
2019-05-29T09:55:11.172Z,20.76
2019-05-29T09:56:11.134Z,20.72
2019-05-29T09:57:14.602Z,21.28
2019-05-29T09:58:11.096Z,21.74
2019-05-29T09:59:11.037Z,21.22
2019-05-29T10:00:11.021Z,20.70
2019-05-29T10:01:22.685Z,20.31
2019-05-29T10:02:10.941Z,20.84
2019-05-29T10:03:10.929Z,21.27
2019-05-29T10:04:10.866Z,21.69
2019-05-29T10:05:10.838Z,21.29
2019-05-29T10:06:10.832Z,20.98
2019-05-29T10:07:10.759Z,21.27
2019-05-29T10:08:10.747Z,21.62
2019-05-29T10:09:10.697Z,21.37
2019-05-29T10:10:10.685Z,21.19
2019-05-29T10:11:11.190Z,21.49
2019-05-29T10:12:10.585Z,21.61
2019-05-29T10:13:19.597Z,21.65
2019-05-29T10:14:10.518Z,21.49
2019-05-29T10:15:10.519Z,21.53
2019-05-29T10:16:10.454Z,21.40
2019-05-29T10:17:12.511Z,21.22
2019-05-29T10:18:30.022Z,21.16
2019-05-29T10:19:10.343Z,21.42
2019-05-29T10:20:10.343Z,22.03
2019-05-29T10:21:19.148Z,22.05
2019-05-29T10:22:10.248Z,22.60
2019-05-29T10:23:10.208Z,23.00
2019-05-29T10:24:10.173Z,23.35
2019-05-29T10:25:10.163Z,22.86
2019-05-29T10:26:10.164Z,22.92
2019-05-29T10:27:10.080Z,22.77
2019-05-29T10:28:10.067Z,22.94
2019-05-29T10:29:10.252Z,22.92
2019-05-29T10:30:09.962Z,22.88
2019-05-29T10:31:09.958Z,22.52
2019-05-29T10:32:09.928Z,22.91
2019-05-29T10:33:09.863Z,23.07
2019-05-29T10:34:09.847Z,23.32
2019-05-29T10:35:09.824Z,23.61
2019-05-29T10:36:09.780Z,23.33
2019-05-29T10:37:09.768Z,22.46
2019-05-29T10:38:09.691Z,22.24
2019-05-29T10:39:12.752Z,22.52
2019-05-29T10:40:09.662Z,22.60
2019-05-29T10:41:09.590Z,22.15
2019-05-29T10:42:09.603Z,21.69
2019-05-29T10:43:09.516Z,21.71
2019-05-29T10:44:12.656Z,21.14
2019-05-29T10:45:09.454Z,20.87
2019-05-29T10:46:09.422Z,21.38
2019-05-29T10:47:09.420Z,21.54
2019-05-29T10:48:09.709Z,21.92
2019-05-29T10:49:09.316Z,21.59
2019-05-29T10:50:09.309Z,21.56
2019-05-29T10:51:09.238Z,21.79
2019-05-29T10:52:15.664Z,22.02
2019-05-29T10:53:09.207Z,22.17
2019-05-29T10:54:09.150Z,22.45
2019-05-29T10:55:09.110Z,22.36
2019-05-29T10:56:09.074Z,22.64
2019-05-29T10:57:09.051Z,22.25
2019-05-29T10:58:09.054Z,21.74
2019-05-29T10:59:08.974Z,21.44
2019-05-29T11:00:08.948Z,20.91
2019-05-29T11:01:08.896Z,20.87
2019-05-29T11:02:08.865Z,20.54
2019-05-29T11:03:08.900Z,20.41
2019-05-29T11:04:08.840Z,20.76
2019-05-29T11:05:08.771Z,21.27
2019-05-29T11:06:08.738Z,21.44
2019-05-29T11:07:08.701Z,21.38
2019-05-29T11:08:08.672Z,21.53
2019-05-29T11:09:08.647Z,21.38
2019-05-29T11:10:08.627Z,21.24
2019-05-29T11:11:08.597Z,21.12
2019-05-29T11:12:08.525Z,21.28
2019-05-29T11:13:08.516Z,21.69
2019-05-29T11:14:08.466Z,21.84
2019-05-29T11:15:20.796Z,22.22
2019-05-29T11:16:08.423Z,22.30
2019-05-29T11:17:08.372Z,22.58
2019-05-29T11:18:08.326Z,22.60
2019-05-29T11:19:08.299Z,22.12
2019-05-29T11:20:08.265Z,21.90
2019-05-29T11:21:08.249Z,22.00
2019-05-29T11:22:25.121Z,22.35
2019-05-29T11:23:08.164Z,22.37
2019-05-29T11:24:08.122Z,22.43
2019-05-29T11:25:21.743Z,22.05
2019-05-29T11:26:08.097Z,22.02
2019-05-29T11:27:08.072Z,22.02
2019-05-29T11:28:07.999Z,22.07
2019-05-29T11:29:07.957Z,22.10
2019-05-29T11:30:07.930Z,22.03
2019-05-29T11:31:07.906Z,21.98
2019-05-29T11:32:07.902Z,21.64
2019-05-29T11:33:07.835Z,21.61
2019-05-29T11:34:07.796Z,21.62
2019-05-29T11:35:07.776Z,21.37
2019-05-29T11:36:12.907Z,21.62
2019-05-29T11:37:07.711Z,21.52
2019-05-29T11:38:07.712Z,21.98
2019-05-29T11:39:07.637Z,21.96
2019-05-29T11:40:07.617Z,21.99
2019-05-29T11:41:25.072Z,22.02
2019-05-29T11:42:07.536Z,22.20
2019-05-29T11:43:07.511Z,21.99
2019-05-29T11:44:07.510Z,21.91
2019-05-29T11:45:07.451Z,21.72
2019-05-29T11:46:07.422Z,21.80
2019-05-29T11:47:07.385Z,21.92
2019-05-29T11:48:07.361Z,21.96
2019-05-29T11:49:07.358Z,21.98
2019-05-29T11:50:18.752Z,21.71
2019-05-29T11:51:07.256Z,21.50
2019-05-29T11:52:23.577Z,21.50
2019-05-29T11:53:07.190Z,21.61
2019-05-29T11:54:07.153Z,21.72
2019-05-29T11:55:08.149Z,22.02
2019-05-29T11:56:07.101Z,21.96
2019-05-29T11:57:07.069Z,21.43
2019-05-29T11:58:07.037Z,21.10
2019-05-29T11:59:07.005Z,21.13
2019-05-29T12:00:17.896Z,21.21
2019-05-29T12:01:06.942Z,21.03
2019-05-29T12:02:06.907Z,21.09
2019-05-29T12:03:06.910Z,21.07
2019-05-29T12:04:23.256Z,21.10
2019-05-29T12:05:06.848Z,21.04
2019-05-29T12:06:06.819Z,20.95
2019-05-29T12:07:06.748Z,20.73
2019-05-29T12:08:06.730Z,20.84
2019-05-29T12:09:06.713Z,20.88
2019-05-29T12:10:07.010Z,21.01
2019-05-29T12:11:07.280Z,21.13
2019-05-29T12:12:06.612Z,21.12
2019-05-29T12:13:06.574Z,21.01
2019-05-29T12:14:06.536Z,21.09
2019-05-29T12:15:13.015Z,21.31
2019-05-29T12:16:06.511Z,21.16
2019-05-29T12:17:06.495Z,21.34
2019-05-29T12:18:22.963Z,21.64
2019-05-29T12:19:06.388Z,21.82
2019-05-29T12:20:26.336Z,21.74
2019-05-29T12:21:06.332Z,21.19
2019-05-29T12:22:06.311Z,20.99
2019-05-29T12:23:24.125Z,21.12
2019-05-29T12:24:06.245Z,21.13
2019-05-29T12:25:06.206Z,20.97
2019-05-29T12:26:21.177Z,20.97
2019-05-29T12:27:06.147Z,21.13
2019-05-29T12:28:06.116Z,21.21
2019-05-29T12:29:11.489Z,21.34
2019-05-29T12:30:06.098Z,21.34
2019-05-29T12:31:06.031Z,21.17
2019-05-29T12:32:09.689Z,21.17
2019-05-29T12:33:05.970Z,21.31
2019-05-29T12:34:17.795Z,21.50
2019-05-29T12:35:05.922Z,21.62
2019-05-29T12:36:05.889Z,21.79
2019-05-29T12:37:05.855Z,21.77
2019-05-29T12:38:05.823Z,21.92
2019-05-29T12:39:05.786Z,21.82
2019-05-29T12:40:05.798Z,21.79
2019-05-29T12:41:05.764Z,22.00
2019-05-29T12:42:05.705Z,21.82
2019-05-29T12:43:05.684Z,21.56
2019-05-29T12:44:05.657Z,21.19
2019-05-29T12:45:05.620Z,20.94
2019-05-29T12:46:05.658Z,20.82
2019-05-29T12:47:05.669Z,20.70
2019-05-29T12:48:12.361Z,20.67
2019-05-29T12:49:05.494Z,20.58
2019-05-29T12:50:05.472Z,20.58
2019-05-29T12:51:05.439Z,20.69
2019-05-29T12:52:07.683Z,20.84
2019-05-29T12:53:05.385Z,20.95
2019-05-29T12:54:05.374Z,21.12
2019-05-29T12:55:05.315Z,21.04
2019-05-29T12:56:05.317Z,20.98
2019-05-29T12:57:05.279Z,20.85
2019-05-29T12:58:05.217Z,20.98
2019-05-29T12:59:05.187Z,21.09
2019-05-29T13:00:05.733Z,21.14
2019-05-29T13:01:05.305Z,21.17